createdAt,value
2023-04-06T00:00:53.737Z,101654.97
2023-04-06T00:03:20.851Z,101655.97
2023-04-06T00:05:48.916Z,101662.66
2023-04-06T00:08:15.762Z,101656.31
2023-04-06T00:10:42.680Z,101659.16
2023-04-06T00:13:09.505Z,101659.97
2023-04-06T00:15:36.273Z,101662.00
2023-04-06T00:18:04.401Z,101658.00
2023-04-06T00:20:31.438Z,101667.00
2023-04-06T00:22:58.207Z,101664.31
2023-04-06T00:25:25.036Z,101668.16
2023-04-06T00:27:51.825Z,101666.00
2023-04-06T00:30:19.129Z,101671.50
2023-04-06T00:32:46.043Z,101667.44
2023-04-06T00:35:12.997Z,101664.28
2023-04-06T00:37:39.837Z,101662.06
2023-04-06T00:40:07.493Z,101662.91
2023-04-06T00:42:34.384Z,101660.59
2023-04-06T00:45:02.264Z,101661.41
2023-04-06T00:47:29.696Z,101658.44
2023-04-06T00:49:57.947Z,101662.75
2023-04-06T00:52:24.861Z,101653.56
2023-04-06T00:54:53.281Z,101655.25
2023-04-06T00:57:21.542Z,101658.25
2023-04-06T00:59:54.913Z,101661.91
2023-04-06T01:02:22.083Z,101655.25
2023-04-06T01:04:53.518Z,101655.41
2023-04-06T01:07:26.941Z,101652.19
2023-04-06T01:10:11.109Z,101658.13
2023-04-06T01:12:39.878Z,101652.44
2023-04-06T01:15:14.667Z,101654.72
2023-04-06T01:17:44.234Z,101648.25
2023-04-06T01:20:15.484Z,101642.53
2023-04-06T01:22:42.284Z,101654.84
2023-04-06T01:25:10.557Z,101656.91
2023-04-06T01:27:56.156Z,101658.78
2023-04-06T01:30:29.092Z,101651.09
2023-04-06T01:33:02.334Z,101648.28
2023-04-06T01:35:54.372Z,101645.25
2023-04-06T01:38:21.647Z,101648.91
2023-04-06T01:40:49.361Z,101649.84
2023-04-06T01:43:18.857Z,101649.84
2023-04-06T01:46:00.318Z,101647.19
2023-04-06T01:48:32.884Z,101649.50
2023-04-06T01:51:03.116Z,101639.72
2023-04-06T01:53:33.682Z,101639.91
2023-04-06T01:56:05.548Z,101633.94
2023-04-06T01:58:39.240Z,101635.81
2023-04-06T02:01:06.641Z,101639.78
2023-04-06T02:03:46.751Z,101635.72
2023-04-06T02:06:13.515Z,101635.19
2023-04-06T02:08:41.716Z,101636.53
2023-04-06T02:11:08.853Z,101635.56
2023-04-06T02:13:42.906Z,101637.81
2023-04-06T02:16:10.787Z,101642.13
2023-04-06T02:18:37.651Z,101626.50
2023-04-06T02:21:05.048Z,101631.75
2023-04-06T02:23:31.841Z,101625.94
2023-04-06T02:25:58.580Z,101629.31
2023-04-06T02:28:25.498Z,101622.53
2023-04-06T02:30:52.294Z,101627.94
2023-04-06T02:33:20.802Z,101623.19
2023-04-06T02:35:48.391Z,101619.50
2023-04-06T02:38:15.397Z,101620.38
2023-04-06T02:40:42.158Z,101613.69
2023-04-06T02:43:29.210Z,101621.13
2023-04-06T02:46:04.414Z,101620.50
2023-04-06T02:48:37.260Z,101618.88
2023-04-06T02:51:04.836Z,101613.03
2023-04-06T02:53:31.634Z,101622.69
2023-04-06T02:55:58.763Z,101620.50
2023-04-06T02:58:32.425Z,101624.13
2023-04-06T03:00:59.240Z,101621.41
2023-04-06T03:03:26.332Z,101618.19
2023-04-06T03:05:55.380Z,101614.72
2023-04-06T03:08:27.280Z,101618.50
2023-04-06T03:10:54.076Z,101613.94
2023-04-06T03:13:21.887Z,101613.34
2023-04-06T03:15:58.537Z,101614.72
2023-04-06T03:18:26.867Z,101609.34
2023-04-06T03:20:56.417Z,101611.09
2023-04-06T03:23:28.812Z,101610.78
2023-04-06T03:26:01.365Z,101610.69
2023-04-06T03:28:28.197Z,101609.91
2023-04-06T03:31:01.016Z,101609.16
2023-04-06T03:33:45.483Z,101612.81
2023-04-06T03:36:19.757Z,101613.88
2023-04-06T03:38:46.676Z,101609.72
2023-04-06T03:41:14.757Z,101604.56
2023-04-06T03:43:46.927Z,101600.28
2023-04-06T03:46:14.972Z,101609.09
2023-04-06T03:48:41.751Z,101610.84
2023-04-06T03:51:08.550Z,101606.69
2023-04-06T03:53:35.346Z,101609.03
2023-04-06T03:56:04.576Z,101609.41
2023-04-06T03:58:32.046Z,101604.69
2023-04-06T04:00:58.830Z,101607.19
2023-04-06T04:03:28.216Z,101605.38
2023-04-06T04:05:58.091Z,101610.84
2023-04-06T04:08:26.148Z,101611.16
2023-04-06T04:10:52.874Z,101620.78
2023-04-06T04:13:20.853Z,101627.22
2023-04-06T04:15:50.454Z,101617.69
2023-04-06T04:18:17.376Z,101623.41
2023-04-06T04:20:44.170Z,101623.59
2023-04-06T04:23:12.321Z,101628.31
2023-04-06T04:25:39.472Z,101622.81
2023-04-06T04:28:06.997Z,101626.91
2023-04-06T04:30:33.957Z,101628.94
2023-04-06T04:33:00.748Z,101633.44
2023-04-06T04:35:28.638Z,101626.91
2023-04-06T04:37:55.479Z,101628.19
2023-04-06T04:40:22.534Z,101628.47
2023-04-06T04:43:06.956Z,101624.94
2023-04-06T04:45:35.148Z,101624.88
2023-04-06T04:48:14.511Z,101634.78
2023-04-06T04:51:01.549Z,101632.41
2023-04-06T04:53:38.234Z,101633.97
2023-04-06T04:56:16.203Z,101642.06
2023-04-06T04:58:44.509Z,101639.41
2023-04-06T05:01:12.248Z,101651.25
2023-04-06T05:03:40.805Z,101647.47
2023-04-06T05:06:13.484Z,101658.34
2023-04-06T05:08:42.533Z,101664.44
2023-04-06T05:11:10.603Z,101668.06
2023-04-06T05:13:42.322Z,101660.88
2023-04-06T05:16:14.723Z,101658.88
2023-04-06T05:18:41.860Z,101662.66
2023-04-06T05:21:10.809Z,101656.34
2023-04-06T05:23:57.913Z,101660.66
2023-04-06T05:26:25.453Z,101664.03
2023-04-06T05:28:56.148Z,101663.88
2023-04-06T05:31:24.439Z,101654.63
2023-04-06T05:33:51.827Z,101654.53
2023-04-06T05:36:29.023Z,101663.25
2023-04-06T05:38:56.880Z,101664.22
2023-04-06T05:41:34.268Z,101663.50
2023-04-06T05:44:01.563Z,101667.16
2023-04-06T05:46:28.793Z,101662.84
2023-04-06T05:48:58.745Z,101674.28
2023-04-06T05:51:29.349Z,101676.13
2023-04-06T05:53:56.193Z,101676.13
2023-04-06T05:56:23.176Z,101676.69
2023-04-06T05:58:49.980Z,101682.63
2023-04-06T06:01:23.372Z,101683.03
2023-04-06T06:03:50.291Z,101676.41
2023-04-06T06:06:17.028Z,101685.72
2023-04-06T06:09:04.646Z,101689.66
2023-04-06T06:11:35.418Z,101687.41
2023-04-06T06:14:03.851Z,101693.72
2023-04-06T06:16:34.399Z,101689.31
2023-04-06T06:19:01.184Z,101689.34
2023-04-06T06:21:28.031Z,101700.59
2023-04-06T06:23:55.654Z,101698.22
2023-04-06T06:26:23.750Z,101697.56
2023-04-06T06:28:50.969Z,101696.88
2023-04-06T06:31:18.091Z,101701.63
2023-04-06T06:33:45.086Z,101709.66
2023-04-06T06:36:11.883Z,101708.59
2023-04-06T06:38:39.893Z,101716.53
2023-04-06T06:41:06.938Z,101720.59
2023-04-06T06:43:36.082Z,101722.13
2023-04-06T06:46:07.538Z,101721.84
2023-04-06T06:48:34.431Z,101722.94
2023-04-06T06:51:01.318Z,101718.97
2023-04-06T06:53:28.310Z,101716.97
2023-04-06T06:55:56.162Z,101720.44
2023-04-06T06:58:23.858Z,101717.81
2023-04-06T07:00:50.821Z,101718.47
2023-04-06T07:03:17.630Z,101721.66
2023-04-06T07:05:54.072Z,101727.69
2023-04-06T07:08:24.068Z,101719.06
2023-04-06T07:10:57.484Z,101720.28
2023-04-06T07:13:25.124Z,101710.31
2023-04-06T07:15:55.637Z,101710.97
2023-04-06T07:18:23.621Z,101710.31
2023-04-06T07:20:50.816Z,101713.50
2023-04-06T07:23:18.180Z,101717.31
2023-04-06T07:25:45.782Z,101721.00
2023-04-06T07:28:12.668Z,101718.81
2023-04-06T07:30:39.943Z,101723.84
2023-04-06T07:33:08.679Z,101725.31
2023-04-06T07:35:37.674Z,101728.16
2023-04-06T07:38:05.687Z,101737.69
2023-04-06T07:40:33.807Z,101739.84
2023-04-06T07:43:00.782Z,101740.19
2023-04-06T07:45:27.586Z,101732.00
2023-04-06T07:47:55.147Z,101735.69
2023-04-06T07:50:22.467Z,101745.19
2023-04-06T07:52:49.497Z,101745.34
2023-04-06T07:55:16.528Z,101754.03
2023-04-06T07:57:43.261Z,101754.50
2023-04-06T08:00:10.777Z,101747.34
2023-04-06T08:02:40.561Z,101759.50
2023-04-06T08:05:08.265Z,101751.84
2023-04-06T08:07:35.392Z,101753.69
2023-04-06T08:10:02.570Z,101746.88
2023-04-06T08:12:29.322Z,101748.88
2023-04-06T08:14:56.235Z,101745.03
2023-04-06T08:17:23.041Z,101740.38
2023-04-06T08:19:50.480Z,101751.50
2023-04-06T08:22:17.220Z,101743.09
2023-04-06T08:24:44.030Z,101747.94
2023-04-06T08:27:11.083Z,101743.88
2023-04-06T08:29:37.917Z,101750.72
2023-04-06T08:32:06.150Z,101741.16
2023-04-06T08:34:36.422Z,101746.88
2023-04-06T08:37:03.303Z,101756.53
2023-04-06T08:39:31.807Z,101751.22
2023-04-06T08:42:00.844Z,101758.03
2023-04-06T08:44:28.227Z,101748.91
2023-04-06T08:46:55.871Z,101750.97
2023-04-06T08:49:22.802Z,101753.59
2023-04-06T08:51:50.391Z,101755.81
2023-04-06T08:54:17.355Z,101751.31
2023-04-06T08:56:44.455Z,101755.31
2023-04-06T08:59:12.109Z,101754.63
2023-04-06T09:01:44.431Z,101759.13
2023-04-06T09:04:13.216Z,101757.69
2023-04-06T09:06:41.790Z,101760.75
2023-04-06T09:09:09.215Z,101768.09
2023-04-06T09:11:47.591Z,101755.03
2023-04-06T09:14:14.957Z,101753.84
2023-04-06T09:16:43.329Z,101754.06
2023-04-06T09:19:11.048Z,101751.19
2023-04-06T09:21:39.249Z,101755.91
2023-04-06T09:24:08.668Z,101750.88
2023-04-06T09:26:48.636Z,101754.59
2023-04-06T09:29:28.108Z,101748.03
2023-04-06T09:32:04.433Z,101744.81
2023-04-06T09:34:31.324Z,101747.72
2023-04-06T09:36:59.353Z,101759.09
2023-04-06T09:39:26.535Z,101756.41
2023-04-06T09:41:55.274Z,101753.91
2023-04-06T09:44:22.623Z,101757.31
2023-04-06T09:46:58.789Z,101760.63
2023-04-06T09:49:31.816Z,101762.53
2023-04-06T09:52:01.348Z,101750.69
2023-04-06T09:54:30.629Z,101753.00
2023-04-06T09:57:05.162Z,101751.75
2023-04-06T09:59:34.689Z,101760.63
2023-04-06T10:02:03.356Z,101750.94
2023-04-06T10:04:42.431Z,101761.84
2023-04-06T10:07:12.112Z,101751.88
2023-04-06T10:09:39.550Z,101756.34
2023-04-06T10:12:07.407Z,101759.22
2023-04-06T10:14:38.697Z,101757.97
2023-04-06T10:17:05.986Z,101758.38
2023-04-06T10:19:39.721Z,101755.03
2023-04-06T10:22:09.681Z,101750.91
2023-04-06T10:24:37.081Z,101750.00
2023-04-06T10:27:04.836Z,101748.53
2023-04-06T10:29:46.315Z,101749.75
2023-04-06T10:32:13.593Z,101744.66
2023-04-06T10:34:40.644Z,101746.75
2023-04-06T10:37:17.710Z,101746.53
2023-04-06T10:39:59.368Z,101738.78
2023-04-06T10:42:26.896Z,101744.34
2023-04-06T10:44:53.750Z,101729.69
2023-04-06T10:47:20.656Z,101724.31
2023-04-06T10:49:47.556Z,101724.56
2023-04-06T10:52:14.596Z,101726.97
2023-04-06T10:54:45.267Z,101730.97
2023-04-06T10:57:13.647Z,101731.00
2023-04-06T10:59:44.785Z,101720.47
2023-04-06T11:02:21.826Z,101727.13
2023-04-06T11:04:58.363Z,101723.19
2023-04-06T11:07:27.361Z,101720.28
2023-04-06T11:10:11.653Z,101722.59
2023-04-06T11:12:39.798Z,101721.75
2023-04-06T11:15:07.281Z,101721.56
2023-04-06T11:17:38.046Z,101722.38
2023-04-06T11:20:10.813Z,101724.47
2023-04-06T11:22:37.666Z,101719.06
2023-04-06T11:27:41.009Z,101722.19
2023-04-06T11:30:08.534Z,101716.34
2023-04-06T11:32:45.776Z,101715.13
2023-04-06T11:35:23.583Z,101716.59
2023-04-06T11:37:51.732Z,101713.91
2023-04-06T11:40:25.785Z,101720.34
2023-04-06T11:42:56.891Z,101715.56
2023-04-06T11:45:24.149Z,101712.66
2023-04-06T11:48:00.325Z,101704.63
2023-04-06T11:50:34.806Z,101709.59
2023-04-06T11:53:04.049Z,101716.22
2023-04-06T11:55:38.323Z,101710.84
2023-04-06T11:58:05.226Z,101699.03
2023-04-06T12:00:35.565Z,101695.09
2023-04-06T12:03:02.526Z,101689.06
2023-04-06T12:05:29.533Z,101690.53
2023-04-06T12:07:57.479Z,101689.88
2023-04-06T12:10:25.839Z,101679.34
2023-04-06T12:12:52.616Z,101691.56
2023-04-06T12:15:19.365Z,101694.06
2023-04-06T12:17:46.155Z,101679.53
2023-04-06T12:20:22.597Z,101687.22
2023-04-06T12:22:53.129Z,101679.13
2023-04-06T12:25:19.987Z,101686.59
2023-04-06T12:27:46.753Z,101669.38
2023-04-06T12:30:13.724Z,101690.31
2023-04-06T12:32:40.824Z,101672.31
2023-04-06T12:35:09.876Z,101685.56
2023-04-06T12:37:37.757Z,101675.56
2023-04-06T12:40:05.327Z,101674.16
2023-04-06T12:42:32.126Z,101676.19
2023-04-06T12:44:58.928Z,101678.88
2023-04-06T12:47:27.449Z,101677.41
2023-04-06T12:49:55.093Z,101665.03
2023-04-06T12:52:21.888Z,101671.28
2023-04-06T12:54:50.130Z,101666.06
2023-04-06T12:57:18.381Z,101655.50
2023-04-06T12:59:45.702Z,101660.47
2023-04-06T13:02:13.068Z,101660.00
2023-04-06T13:04:40.061Z,101657.53
2023-04-06T13:07:06.935Z,101654.44
2023-04-06T13:09:33.749Z,101647.38
2023-04-06T13:12:00.568Z,101641.78
2023-04-06T13:14:27.401Z,101645.91
2023-04-06T13:16:54.302Z,101650.06
2023-04-06T13:19:21.254Z,101637.44
2023-04-06T13:21:48.250Z,101630.84
2023-04-06T13:24:16.561Z,101626.94
2023-04-06T13:26:44.469Z,101629.81
2023-04-06T13:29:11.290Z,101614.28
2023-04-06T13:31:39.103Z,101622.34
2023-04-06T13:34:06.512Z,101623.16
2023-04-06T13:36:33.617Z,101618.44
2023-04-06T13:39:00.485Z,101624.03
2023-04-06T13:41:27.621Z,101616.97
2023-04-06T13:43:54.414Z,101618.00
2023-04-06T13:46:21.491Z,101608.69
2023-04-06T13:48:49.020Z,101605.16
2023-04-06T13:51:16.494Z,101602.69
2023-04-06T13:53:43.660Z,101598.75
2023-04-06T13:56:10.556Z,101597.13
2023-04-06T13:58:37.478Z,101596.47
2023-04-06T14:01:11.239Z,101574.72
2023-04-06T14:03:40.393Z,101582.41
2023-04-06T14:06:29.697Z,101575.97
2023-04-06T14:08:58.256Z,101583.44
2023-04-06T14:11:25.273Z,101575.56
2023-04-06T14:13:52.147Z,101574.94
2023-04-06T14:16:20.755Z,101567.91
2023-04-06T14:18:47.623Z,101566.84
2023-04-06T14:21:14.451Z,101569.13
2023-04-06T14:23:41.578Z,101574.72
2023-04-06T14:26:09.625Z,101575.31
2023-04-06T14:28:36.927Z,101565.19
2023-04-06T14:31:11.474Z,101558.53
2023-04-06T14:33:38.273Z,101558.16
2023-04-06T14:36:05.972Z,101553.13
2023-04-06T14:38:33.410Z,101556.03
2023-04-06T14:41:00.396Z,101572.41
2023-04-06T14:43:27.436Z,101559.97
2023-04-06T14:45:54.204Z,101562.47
2023-04-06T14:48:20.987Z,101564.50
2023-04-06T14:50:57.567Z,101560.41
2023-04-06T14:53:24.880Z,101568.88
2023-04-06T14:55:52.353Z,101567.84
2023-04-06T14:58:20.445Z,101568.03
2023-04-06T15:00:47.807Z,101565.34
2023-04-06T15:03:15.050Z,101557.28
2023-04-06T15:05:42.649Z,101557.06
2023-04-06T15:08:12.705Z,101559.75
2023-04-06T15:10:39.482Z,101554.97
2023-04-06T15:13:06.269Z,101554.78
2023-04-06T15:15:33.135Z,101549.38
2023-04-06T15:18:03.344Z,101548.97
2023-04-06T15:20:30.710Z,101558.25
2023-04-06T15:22:57.865Z,101557.38
2023-04-06T15:25:24.958Z,101563.00
2023-04-06T15:27:51.815Z,101560.28
2023-04-06T15:30:18.589Z,101558.41
2023-04-06T15:32:55.965Z,101551.72
2023-04-06T15:35:23.320Z,101543.59
2023-04-06T15:37:50.372Z,101535.53
2023-04-06T15:40:17.190Z,101535.13
2023-04-06T15:42:44.311Z,101534.91
2023-04-06T15:45:11.942Z,101539.94
2023-04-06T15:47:39.833Z,101540.25
2023-04-06T15:50:07.406Z,101540.00
2023-04-06T15:52:35.312Z,101541.25
2023-04-06T15:55:04.762Z,101546.69
2023-04-06T15:57:31.650Z,101559.63
2023-04-06T15:59:59.209Z,101556.69
2023-04-06T16:02:26.210Z,101560.59
2023-04-06T16:04:56.994Z,101561.50
2023-04-06T16:07:23.921Z,101549.16
2023-04-06T16:09:52.241Z,101554.00
2023-04-06T16:12:19.834Z,101559.16
2023-04-06T16:14:46.971Z,101563.44
2023-04-06T16:17:14.232Z,101561.63
2023-04-06T16:19:41.769Z,101561.59
2023-04-06T16:22:09.944Z,101562.22
2023-04-06T16:24:36.693Z,101558.13
2023-04-06T16:27:03.929Z,101563.63
2023-04-06T16:29:32.240Z,101566.31
2023-04-06T16:31:59.021Z,101566.91
2023-04-06T16:34:26.376Z,101559.84
2023-04-06T16:36:53.248Z,101569.84
2023-04-06T16:39:20.026Z,101569.66
2023-04-06T16:41:47.382Z,101569.66
2023-04-06T16:44:14.228Z,101572.81
2023-04-06T16:46:41.478Z,101571.31
2023-04-06T16:49:08.208Z,101580.03
2023-04-06T16:51:37.032Z,101581.91
2023-04-06T16:54:04.247Z,101584.59
2023-04-06T16:56:32.346Z,101582.16
2023-04-06T16:58:59.335Z,101588.13
2023-04-06T17:01:28.732Z,101587.72
2023-04-06T17:03:56.538Z,101581.91
2023-04-06T17:06:24.192Z,101585.84
2023-04-06T17:08:51.376Z,101588.09
2023-04-06T17:11:23.416Z,101593.94
2023-04-06T17:13:54.840Z,101602.66
2023-04-06T17:16:25.513Z,101594.59
2023-04-06T17:18:53.231Z,101593.78
2023-04-06T17:21:21.029Z,101591.78
2023-04-06T17:23:48.534Z,101589.75
2023-04-06T17:26:16.088Z,101597.25
2023-04-06T17:28:43.261Z,101603.28
2023-04-06T17:31:11.748Z,101595.00
2023-04-06T17:33:39.732Z,101596.06
2023-04-06T17:36:08.369Z,101601.03
2023-04-06T17:38:35.618Z,101605.38
2023-04-06T17:41:05.050Z,101603.09
2023-04-06T17:43:32.320Z,101602.66
2023-04-06T17:45:59.580Z,101611.13
2023-04-06T17:48:27.763Z,101618.59
2023-04-06T17:50:54.639Z,101621.03
2023-04-06T17:53:21.444Z,101620.03
2023-04-06T17:55:48.163Z,101616.22
2023-04-06T17:58:14.969Z,101625.09
2023-04-06T18:00:41.679Z,101625.06
2023-04-06T18:03:08.534Z,101632.06
2023-04-06T18:05:35.507Z,101629.28
2023-04-06T18:08:02.276Z,101618.69
2023-04-06T18:10:28.994Z,101624.03
2023-04-06T18:12:55.762Z,101620.94
2023-04-06T18:15:22.605Z,101622.31
2023-04-06T18:17:50.947Z,101622.72
2023-04-06T18:20:17.791Z,101624.19
2023-04-06T18:22:44.562Z,101624.59
2023-04-06T18:25:12.938Z,101630.72
2023-04-06T18:27:39.723Z,101618.09
2023-04-06T18:30:07.095Z,101629.84
2023-04-06T18:32:34.114Z,101635.16
2023-04-06T18:35:01.056Z,101631.66
2023-04-06T18:37:27.792Z,101642.78
2023-04-06T18:39:54.753Z,101639.19
2023-04-06T18:42:21.672Z,101644.34
2023-04-06T18:44:48.473Z,101644.34
2023-04-06T18:47:15.683Z,101649.44
2023-04-06T18:49:42.664Z,101646.09
2023-04-06T18:52:09.424Z,101644.00
2023-04-06T18:54:36.138Z,101656.59
2023-04-06T18:57:03.345Z,101653.47
2023-04-06T18:59:30.565Z,101658.19
2023-04-06T19:01:58.676Z,101662.91
2023-04-06T19:04:25.996Z,101669.13
2023-04-06T19:06:52.998Z,101663.91
2023-04-06T19:09:19.760Z,101671.06
2023-04-06T19:11:46.753Z,101674.22
2023-04-06T19:14:14.508Z,101673.75
2023-04-06T19:16:51.964Z,101672.94
2023-04-06T19:19:19.559Z,101676.81
2023-04-06T19:21:46.718Z,101683.88
2023-04-06T19:24:13.502Z,101685.06
2023-04-06T19:26:40.240Z,101677.03
2023-04-06T19:29:06.989Z,101691.00
2023-04-06T19:31:33.766Z,101687.88
2023-04-06T19:34:00.515Z,101697.56
2023-04-06T19:36:28.387Z,101691.56
2023-04-06T19:38:55.613Z,101697.78
2023-04-06T19:41:22.465Z,101705.81
2023-04-06T19:43:49.599Z,101716.69
2023-04-06T19:46:16.444Z,101715.06
2023-04-06T19:48:43.398Z,101716.34
2023-04-06T19:51:10.282Z,101706.16
2023-04-06T19:53:37.779Z,101709.88
2023-04-06T19:56:04.704Z,101712.09
2023-04-06T19:58:31.873Z,101713.78
2023-04-06T20:00:58.628Z,101712.50
2023-04-06T20:03:25.555Z,101716.19
2023-04-06T20:05:52.372Z,101713.69
2023-04-06T20:08:19.250Z,101712.84
2023-04-06T20:10:46.283Z,101712.69
2023-04-06T20:13:13.098Z,101719.88
2023-04-06T20:15:39.998Z,101715.63
2023-04-06T20:18:06.878Z,101714.78
2023-04-06T20:20:33.678Z,101711.28
2023-04-06T20:23:00.430Z,101720.31
2023-04-06T20:25:27.235Z,101713.09
2023-04-06T20:27:54.218Z,101715.97
2023-04-06T20:30:21.390Z,101719.03
2023-04-06T20:32:48.137Z,101712.84
2023-04-06T20:35:14.974Z,101719.03
2023-04-06T20:37:41.980Z,101714.69
2023-04-06T20:40:09.150Z,101714.03
2023-04-06T20:42:37.200Z,101721.72
2023-04-06T20:45:04.706Z,101717.94
2023-04-06T20:47:31.980Z,101708.41
2023-04-06T20:49:58.927Z,101715.44
2023-04-06T20:52:26.726Z,101720.13
2023-04-06T20:54:54.726Z,101720.97
2023-04-06T20:57:21.504Z,101718.31
2023-04-06T20:59:48.249Z,101724.88
2023-04-06T21:02:15.562Z,101707.69
2023-04-06T21:04:43.365Z,101718.59
2023-04-06T21:07:10.885Z,101706.66
2023-04-06T21:09:39.237Z,101703.50
2023-04-06T21:12:07.096Z,101704.16
2023-04-06T21:14:34.357Z,101703.50
2023-04-06T21:17:01.121Z,101706.38
2023-04-06T21:19:28.128Z,101699.72
2023-04-06T21:21:55.276Z,101701.94
2023-04-06T21:24:22.045Z,101708.88
2023-04-06T21:26:49.334Z,101710.06
2023-04-06T21:29:16.095Z,101712.47
2023-04-06T21:31:43.099Z,101707.56
2023-04-06T21:34:11.585Z,101707.75
2023-04-06T21:36:39.091Z,101709.44
2023-04-06T21:39:06.673Z,101703.06
2023-04-06T21:41:34.518Z,101698.06
2023-04-06T21:44:01.416Z,101693.97
2023-04-06T21:46:28.355Z,101687.59
2023-04-06T21:48:55.194Z,101700.75
2023-04-06T21:51:22.908Z,101697.22
2023-04-06T21:53:49.969Z,101696.47
2023-04-06T21:56:22.053Z,101704.13
2023-04-06T21:58:48.920Z,101699.41
2023-04-06T22:01:15.731Z,101703.28
2023-04-06T22:03:42.853Z,101703.09
2023-04-06T22:06:10.523Z,101699.78
2023-04-06T22:08:37.281Z,101694.31
2023-04-06T22:11:09.286Z,101696.50
2023-04-06T22:13:36.270Z,101692.16
2023-04-06T22:16:04.193Z,101693.81
2023-04-06T22:18:31.271Z,101688.41
2023-04-06T22:20:58.261Z,101690.06
2023-04-06T22:23:25.588Z,101687.94
2023-04-06T22:25:53.290Z,101699.84
2023-04-06T22:28:20.132Z,101689.00
2023-04-06T22:30:46.910Z,101691.03
2023-04-06T22:33:13.798Z,101693.81
2023-04-06T22:35:40.730Z,101692.53
2023-04-06T22:38:07.896Z,101697.84
2023-04-06T22:40:34.732Z,101702.44
2023-04-06T22:43:02.708Z,101693.28
2023-04-06T22:45:29.469Z,101693.44
2023-04-06T22:47:56.224Z,101688.06
2023-04-06T22:50:23.046Z,101695.75
2023-04-06T22:52:49.959Z,101695.56
2023-04-06T22:55:16.972Z,101694.56
2023-04-06T22:57:43.754Z,101690.94
2023-04-06T23:00:11.874Z,101691.09
2023-04-06T23:02:38.877Z,101691.97
2023-04-06T23:05:06.430Z,101693.47
2023-04-06T23:07:35.544Z,101692.81
2023-04-06T23:10:03.339Z,101688.47
2023-04-06T23:12:30.337Z,101684.03
2023-04-06T23:14:57.233Z,101686.03
2023-04-06T23:17:24.153Z,101678.22
2023-04-06T23:19:51.434Z,101676.94
2023-04-06T23:22:18.217Z,101674.09
2023-04-06T23:24:44.981Z,101673.47
2023-04-06T23:27:11.715Z,101674.13
2023-04-06T23:29:38.415Z,101666.09
2023-04-06T23:32:05.690Z,101660.94
2023-04-06T23:34:32.506Z,101661.47
2023-04-06T23:37:02.869Z,101655.13
2023-04-06T23:39:30.497Z,101652.28
2023-04-06T23:42:01.565Z,101653.44
2023-04-06T23:44:31.454Z,101649.44
2023-04-06T23:46:58.301Z,101649.31
2023-04-06T23:49:25.148Z,101646.63
2023-04-06T23:51:51.908Z,101637.66
2023-04-06T23:54:18.711Z,101640.50
2023-04-06T23:56:46.414Z,101642.00
2023-04-06T23:59:13.247Z,101647.97
